createdAt,value
2023-05-05T00:01:09.125Z,100562.84
2023-05-05T00:03:35.995Z,100555.94
2023-05-05T00:06:03.302Z,100562.25
2023-05-05T00:08:30.020Z,100563.91
2023-05-05T00:10:56.877Z,100569.28
2023-05-05T00:13:24.292Z,100565.91
2023-05-05T00:15:53.166Z,100570.63
2023-05-05T00:18:20.496Z,100563.09
2023-05-05T00:20:47.858Z,100566.97
2023-05-05T00:23:16.142Z,100569.19
2023-05-05T00:25:42.921Z,100565.97
2023-05-05T00:28:09.650Z,100568.63
2023-05-05T00:30:37.212Z,100567.88
2023-05-05T00:33:04.464Z,100561.88
2023-05-05T00:35:31.325Z,100566.28
2023-05-05T00:37:58.358Z,100562.84
2023-05-05T00:40:25.317Z,100564.34
2023-05-05T00:42:51.983Z,100558.00
2023-05-05T00:45:20.074Z,100556.91
2023-05-05T00:47:49.659Z,100564.47
2023-05-05T00:50:25.087Z,100557.19
2023-05-05T00:52:55.139Z,100560.13
2023-05-05T00:55:22.484Z,100562.09
2023-05-05T00:57:49.807Z,100559.41
2023-05-05T01:00:16.590Z,100562.03
2023-05-05T01:02:44.413Z,100555.00
2023-05-05T01:05:13.044Z,100557.44
2023-05-05T01:08:10.570Z,100555.06
2023-05-05T01:10:54.046Z,100553.84
2023-05-05T01:13:29.856Z,100555.66
2023-05-05T01:16:17.454Z,100554.09
2023-05-05T01:19:32.098Z,100549.88
2023-05-05T01:22:02.714Z,100549.81
2023-05-05T01:24:35.465Z,100546.16
2023-05-05T01:27:38.638Z,100548.00
2023-05-05T01:30:20.827Z,100548.75
2023-05-05T01:32:51.312Z,100554.97
2023-05-05T01:35:31.430Z,100550.31
2023-05-05T01:38:08.217Z,100552.19
2023-05-05T01:40:40.986Z,100543.53
2023-05-05T01:43:10.614Z,100547.69
2023-05-05T01:45:41.535Z,100552.16
2023-05-05T01:48:09.600Z,100545.38
2023-05-05T01:50:37.457Z,100549.91
2023-05-05T01:53:06.458Z,100546.94
2023-05-05T01:55:34.666Z,100539.09
2023-05-05T01:58:03.870Z,100548.28
2023-05-05T02:00:31.776Z,100546.59
2023-05-05T02:02:59.621Z,100543.00
2023-05-05T02:05:27.191Z,100542.91
2023-05-05T02:07:57.976Z,100546.03
2023-05-05T02:10:24.928Z,100546.97
2023-05-05T02:12:53.274Z,100542.97
2023-05-05T02:15:22.369Z,100543.97
2023-05-05T02:17:51.043Z,100542.97
2023-05-05T02:20:19.184Z,100541.84
2023-05-05T02:22:46.011Z,100545.75
2023-05-05T02:25:12.708Z,100544.72
2023-05-05T02:27:43.139Z,100538.88
2023-05-05T02:30:12.724Z,100542.69
2023-05-05T02:33:00.281Z,100541.75
2023-05-05T02:35:35.951Z,100533.81
2023-05-05T02:38:04.228Z,100540.75
2023-05-05T02:40:33.953Z,100544.00
2023-05-05T02:43:05.200Z,100533.81
2023-05-05T02:45:32.570Z,100532.88
2023-05-05T02:48:03.577Z,100538.25
2023-05-05T02:50:32.041Z,100541.44
2023-05-05T02:52:59.628Z,100546.59
2023-05-05T02:55:33.905Z,100543.03
2023-05-05T02:58:06.737Z,100542.13
2023-05-05T03:00:39.828Z,100548.47
2023-05-05T03:03:26.145Z,100550.03
2023-05-05T03:06:13.837Z,100551.00
2023-05-05T03:08:56.537Z,100550.13
2023-05-05T03:11:34.379Z,100550.84
2023-05-05T03:14:18.615Z,100551.00
2023-05-05T03:16:47.618Z,100545.00
2023-05-05T03:19:17.461Z,100547.72
2023-05-05T03:21:44.258Z,100543.69
2023-05-05T03:24:15.669Z,100548.03
2023-05-05T03:26:43.964Z,100537.47
2023-05-05T03:29:10.724Z,100551.31
2023-05-05T03:31:37.448Z,100546.00
2023-05-05T03:34:04.343Z,100546.06
2023-05-05T03:36:31.098Z,100549.00
2023-05-05T03:38:58.126Z,100550.03
2023-05-05T03:41:25.294Z,100549.31
2023-05-05T03:43:52.118Z,100547.97
2023-05-05T03:46:18.902Z,100554.13
2023-05-05T03:48:45.732Z,100548.72
2023-05-05T03:51:13.266Z,100552.47
2023-05-05T03:53:39.902Z,100558.78
2023-05-05T03:56:06.681Z,100555.16
2023-05-05T03:58:33.543Z,100558.56
2023-05-05T04:01:00.454Z,100553.19
2023-05-05T04:03:27.283Z,100557.34
2023-05-05T04:05:54.068Z,100554.44
2023-05-05T04:08:20.829Z,100556.44
2023-05-05T04:10:47.685Z,100561.66
2023-05-05T04:13:14.436Z,100567.47
2023-05-05T04:15:45.515Z,100565.97
2023-05-05T04:18:12.264Z,100570.22
2023-05-05T04:20:38.890Z,100572.63
2023-05-05T04:23:05.553Z,100572.41
2023-05-05T04:25:32.261Z,100573.34
2023-05-05T04:27:58.939Z,100567.63
2023-05-05T04:30:25.541Z,100565.16
2023-05-05T04:32:52.218Z,100565.16
2023-05-05T04:35:19.235Z,100568.66
2023-05-05T04:37:45.836Z,100563.34
2023-05-05T04:40:12.675Z,100569.34
2023-05-05T04:42:39.320Z,100567.50
2023-05-05T04:45:06.597Z,100573.59
2023-05-05T04:47:37.557Z,100578.59
2023-05-05T04:50:04.493Z,100585.44
2023-05-05T04:52:31.270Z,100587.16
2023-05-05T04:54:57.892Z,100590.63
2023-05-05T04:57:24.604Z,100595.03
2023-05-05T04:59:51.279Z,100596.88
2023-05-05T05:02:18.187Z,100597.84
2023-05-05T05:04:44.904Z,100600.25
2023-05-05T05:07:11.525Z,100594.63
2023-05-05T05:09:38.171Z,100598.34
2023-05-05T05:12:05.006Z,100605.63
2023-05-05T05:14:37.196Z,100597.53
2023-05-05T05:17:04.351Z,100598.75
2023-05-05T05:19:30.977Z,100607.00
2023-05-05T05:21:57.631Z,100603.16
2023-05-05T05:24:24.280Z,100606.97
2023-05-05T05:26:51.534Z,100606.00
2023-05-05T05:29:18.312Z,100611.25
2023-05-05T05:31:44.965Z,100602.66
2023-05-05T05:34:12.946Z,100604.34
2023-05-05T05:36:39.753Z,100606.72
2023-05-05T05:39:06.355Z,100607.56
2023-05-05T05:41:32.944Z,100603.56
2023-05-05T05:43:59.597Z,100612.56
2023-05-05T05:46:26.358Z,100610.22
2023-05-05T05:48:53.216Z,100616.56
2023-05-05T05:51:19.843Z,100609.00
2023-05-05T05:53:46.575Z,100617.72
2023-05-05T05:56:13.168Z,100628.41
2023-05-05T05:58:39.935Z,100637.59
2023-05-05T06:01:06.588Z,100625.50
2023-05-05T06:03:33.572Z,100633.13
2023-05-05T06:06:00.351Z,100627.94
2023-05-05T06:08:26.991Z,100625.91
2023-05-05T06:10:53.589Z,100626.34
2023-05-05T06:13:20.180Z,100624.69
2023-05-05T06:15:46.958Z,100629.59
2023-05-05T06:18:13.649Z,100616.84
2023-05-05T06:20:40.354Z,100625.00
2023-05-05T06:23:07.110Z,100621.59
2023-05-05T06:25:33.850Z,100618.19
2023-05-05T06:28:00.583Z,100617.00
2023-05-05T06:30:27.212Z,100618.16
2023-05-05T06:32:54.132Z,100615.56
2023-05-05T06:35:21.252Z,100607.56
2023-05-05T06:37:47.854Z,100608.91
2023-05-05T06:40:14.622Z,100603.19
2023-05-05T06:42:41.213Z,100612.75
2023-05-05T06:45:08.358Z,100610.09
2023-05-05T06:47:35.627Z,100613.88
2023-05-05T06:50:02.318Z,100613.88
2023-05-05T06:52:28.966Z,100614.00
2023-05-05T06:54:55.653Z,100612.97
2023-05-05T06:57:22.305Z,100610.50
2023-05-05T06:59:49.013Z,100616.44
2023-05-05T07:02:15.646Z,100612.34
2023-05-05T07:04:44.434Z,100618.28
2023-05-05T07:07:11.083Z,100614.47
2023-05-05T07:09:37.878Z,100605.13
2023-05-05T07:12:04.682Z,100602.38
2023-05-05T07:14:31.323Z,100606.56
2023-05-05T07:16:58.459Z,100598.81
2023-05-05T07:19:25.185Z,100603.72
2023-05-05T07:21:51.885Z,100599.78
2023-05-05T07:24:18.580Z,100596.84
2023-05-05T07:26:45.363Z,100595.44
2023-05-05T07:29:12.035Z,100603.16
2023-05-05T07:31:38.739Z,100609.13
2023-05-05T07:34:05.336Z,100607.31
2023-05-05T07:36:32.278Z,100601.88
2023-05-05T07:38:59.006Z,100602.03
2023-05-05T07:41:25.652Z,100607.47
2023-05-05T07:43:52.374Z,100609.94
2023-05-05T07:46:19.248Z,100594.75
2023-05-05T07:48:45.901Z,100605.84
2023-05-05T07:51:12.610Z,100603.34
2023-05-05T07:53:40.996Z,100605.19
2023-05-05T07:56:07.657Z,100603.13
2023-05-05T07:58:34.297Z,100604.88
2023-05-05T08:01:00.926Z,100610.72
2023-05-05T08:03:27.717Z,100609.72
2023-05-05T08:05:55.015Z,100606.91
2023-05-05T08:08:21.708Z,100604.25
2023-05-05T08:10:48.371Z,100603.56
2023-05-05T08:13:15.090Z,100602.75
2023-05-05T08:15:41.856Z,100592.91
2023-05-05T08:18:08.482Z,100602.53
2023-05-05T08:20:35.233Z,100597.47
2023-05-05T08:23:01.967Z,100595.63
2023-05-05T08:25:28.638Z,100590.47
2023-05-05T08:27:55.246Z,100596.03
2023-05-05T08:30:22.192Z,100587.66
2023-05-05T08:32:48.838Z,100601.53
2023-05-05T08:35:15.510Z,100595.00
2023-05-05T08:37:42.236Z,100603.78
2023-05-05T08:40:12.320Z,100598.19
2023-05-05T08:42:39.591Z,100608.53
2023-05-05T08:45:08.670Z,100601.28
2023-05-05T08:47:36.144Z,100602.94
2023-05-05T08:50:06.136Z,100602.28
2023-05-05T08:52:41.990Z,100592.72
2023-05-05T08:55:24.952Z,100594.66
2023-05-05T08:57:56.440Z,100593.00
2023-05-05T09:00:24.022Z,100592.44
2023-05-05T09:02:50.924Z,100589.19
2023-05-05T09:05:17.836Z,100588.03
2023-05-05T09:07:44.734Z,100586.78
2023-05-05T09:10:12.614Z,100584.56
2023-05-05T09:12:39.962Z,100577.94
2023-05-05T09:15:08.942Z,100583.91
2023-05-05T09:17:36.116Z,100578.66
2023-05-05T09:20:11.186Z,100579.22
2023-05-05T09:22:39.708Z,100575.22
2023-05-05T09:25:10.125Z,100574.44
2023-05-05T09:27:39.132Z,100569.56
2023-05-05T09:30:08.809Z,100568.56
2023-05-05T09:32:46.621Z,100565.88
2023-05-05T09:35:13.542Z,100566.38
2023-05-05T09:37:40.613Z,100558.50
2023-05-05T09:40:07.947Z,100553.81
2023-05-05T09:42:38.701Z,100550.53
2023-05-05T09:45:25.389Z,100543.84
2023-05-05T09:47:54.807Z,100539.13
2023-05-05T09:50:26.109Z,100545.28
2023-05-05T09:52:56.454Z,100545.03
2023-05-05T09:55:24.408Z,100544.78
2023-05-05T09:57:51.275Z,100543.97
2023-05-05T10:00:18.719Z,100542.25
2023-05-05T10:02:45.749Z,100547.72
2023-05-05T10:05:18.169Z,100539.59
2023-05-05T10:07:46.762Z,100545.59
2023-05-05T10:10:15.875Z,100545.16
2023-05-05T10:12:43.449Z,100538.53
2023-05-05T10:15:11.846Z,100536.94
2023-05-05T10:18:02.412Z,100526.44
2023-05-05T10:20:33.570Z,100529.44
2023-05-05T10:23:02.541Z,100537.00
2023-05-05T10:25:31.454Z,100525.44
2023-05-05T10:28:00.792Z,100519.72
2023-05-05T10:30:30.473Z,100524.56
2023-05-05T10:33:30.827Z,100526.53
2023-05-05T10:36:02.331Z,100525.16
2023-05-05T10:38:30.064Z,100521.47
2023-05-05T10:40:59.022Z,100513.38
2023-05-05T10:43:26.461Z,100512.84
2023-05-05T10:45:54.224Z,100501.91
2023-05-05T10:48:34.770Z,100506.38
2023-05-05T10:51:40.524Z,100506.09
2023-05-05T10:54:26.176Z,100504.56
2023-05-05T10:56:53.401Z,100493.09
2023-05-05T10:59:38.658Z,100480.78
2023-05-05T11:02:18.171Z,100489.31
2023-05-05T11:04:45.449Z,100480.03
2023-05-05T11:07:14.713Z,100478.59
2023-05-05T11:10:02.377Z,100480.03
2023-05-05T11:12:30.892Z,100480.91
2023-05-05T11:15:28.454Z,100472.50
2023-05-05T11:17:59.768Z,100476.25
2023-05-05T11:20:35.248Z,100473.22
2023-05-05T11:23:05.297Z,100472.34
2023-05-05T11:25:34.939Z,100470.34
2023-05-05T11:28:12.629Z,100465.63
2023-05-05T11:31:18.004Z,100465.78
2023-05-05T11:33:44.952Z,100458.00
2023-05-05T11:36:19.744Z,100455.28
2023-05-05T11:39:07.542Z,100454.47
2023-05-05T11:41:55.483Z,100459.41
2023-05-05T11:44:31.399Z,100448.19
2023-05-05T11:47:00.476Z,100443.69
2023-05-05T11:49:35.132Z,100439.06
2023-05-05T11:52:03.662Z,100439.06
2023-05-05T11:54:31.117Z,100446.97
2023-05-05T11:57:02.061Z,100433.19
2023-05-05T11:59:28.722Z,100436.53
2023-05-05T12:01:55.437Z,100437.56
2023-05-05T12:04:22.235Z,100429.53
2023-05-05T12:06:49.250Z,100428.69
2023-05-05T12:09:20.286Z,100432.25
2023-05-05T12:11:54.207Z,100430.06
2023-05-05T12:14:22.128Z,100427.47
2023-05-05T12:16:57.931Z,100426.16
2023-05-05T12:19:25.283Z,100422.88
2023-05-05T12:21:51.934Z,100424.94
2023-05-05T12:24:18.598Z,100420.09
2023-05-05T12:26:45.247Z,100414.84
2023-05-05T12:29:11.976Z,100426.31
2023-05-05T12:31:42.391Z,100416.72
2023-05-05T12:34:10.395Z,100411.84
2023-05-05T12:36:37.732Z,100406.56
2023-05-05T12:39:04.807Z,100411.13
2023-05-05T12:41:32.700Z,100401.00
2023-05-05T12:44:01.297Z,100396.22
2023-05-05T12:46:28.318Z,100391.56
2023-05-05T12:49:06.299Z,100398.19
2023-05-05T12:51:34.439Z,100392.41
2023-05-05T12:54:02.470Z,100392.41
2023-05-05T12:56:30.241Z,100386.44
2023-05-05T12:58:57.148Z,100378.97
2023-05-05T13:01:23.939Z,100381.56
2023-05-05T13:04:07.884Z,100370.00
2023-05-05T13:06:34.523Z,100377.00
2023-05-05T13:09:01.154Z,100370.34
2023-05-05T13:11:27.838Z,100360.81
2023-05-05T13:13:54.456Z,100363.88
2023-05-05T13:16:21.337Z,100361.41
2023-05-05T13:18:49.553Z,100356.06
2023-05-05T13:21:16.182Z,100348.00
2023-05-05T13:23:43.858Z,100354.91
2023-05-05T13:26:11.175Z,100350.19
2023-05-05T13:28:38.243Z,100354.16
2023-05-05T13:31:04.955Z,100350.84
2023-05-05T13:33:35.255Z,100342.53
2023-05-05T13:36:03.137Z,100343.13
2023-05-05T13:38:29.942Z,100338.78
2023-05-05T13:40:56.947Z,100329.19
2023-05-05T13:43:23.562Z,100330.84
2023-05-05T13:45:50.211Z,100323.47
2023-05-05T13:48:16.821Z,100326.97
2023-05-05T13:50:43.437Z,100333.66
2023-05-05T13:53:10.155Z,100320.78
2023-05-05T13:55:36.993Z,100320.59
2023-05-05T13:58:03.674Z,100321.63
2023-05-05T14:00:30.362Z,100319.06
2023-05-05T14:02:57.301Z,100315.50
2023-05-05T14:05:23.980Z,100311.16
2023-05-05T14:07:50.621Z,100315.69
2023-05-05T14:10:17.261Z,100306.53
2023-05-05T14:12:43.987Z,100317.16
2023-05-05T14:15:10.991Z,100311.19
2023-05-05T14:17:37.842Z,100315.50
2023-05-05T14:20:05.446Z,100314.09
2023-05-05T14:22:32.221Z,100307.06
2023-05-05T14:24:58.883Z,100306.25
2023-05-05T14:27:25.526Z,100298.03
2023-05-05T14:29:52.139Z,100302.19
2023-05-05T14:32:18.821Z,100297.00
2023-05-05T14:34:46.029Z,100300.41
2023-05-05T14:37:13.987Z,100298.00
2023-05-05T14:39:40.723Z,100305.53
2023-05-05T14:42:07.335Z,100295.91
2023-05-05T14:44:33.987Z,100295.91
2023-05-05T14:47:01.113Z,100301.34
2023-05-05T14:49:27.760Z,100298.84
2023-05-05T14:51:56.632Z,100288.75
2023-05-05T14:54:28.359Z,100290.81
2023-05-05T14:56:56.424Z,100296.00
2023-05-05T15:01:49.629Z,100299.56
2023-05-05T15:04:16.293Z,100288.13
2023-05-05T15:06:42.963Z,100290.47
2023-05-05T15:09:09.659Z,100295.28
2023-05-05T15:11:36.501Z,100289.78
2023-05-05T15:14:03.346Z,100291.69
2023-05-05T15:16:30.022Z,100292.44
2023-05-05T15:18:56.705Z,100297.88
2023-05-05T15:21:23.489Z,100292.59
2023-05-05T15:23:50.190Z,100290.47
2023-05-05T15:26:16.834Z,100287.75
2023-05-05T15:28:43.590Z,100288.50
2023-05-05T15:31:10.327Z,100291.22
2023-05-05T15:33:37.059Z,100289.91
2023-05-05T15:36:03.814Z,100280.63
2023-05-05T15:38:30.436Z,100279.41
2023-05-05T15:40:57.061Z,100287.31
2023-05-05T15:43:23.700Z,100280.47
2023-05-05T15:45:50.345Z,100280.94
2023-05-05T15:48:16.980Z,100276.59
2023-05-05T15:50:43.598Z,100277.41
2023-05-05T15:53:10.218Z,100277.00
2023-05-05T15:55:36.878Z,100270.16
2023-05-05T15:58:03.808Z,100276.56
2023-05-05T16:00:30.400Z,100273.25
2023-05-05T16:02:57.140Z,100274.84
2023-05-05T16:05:23.993Z,100265.81
2023-05-05T16:07:50.882Z,100270.81
2023-05-05T16:10:17.608Z,100278.00
2023-05-05T16:12:44.319Z,100263.56
2023-05-05T16:15:11.633Z,100260.34
2023-05-05T16:17:38.441Z,100261.41
2023-05-05T16:20:05.767Z,100263.53
2023-05-05T16:22:32.349Z,100260.28
2023-05-05T16:24:58.999Z,100262.72
2023-05-05T16:27:25.580Z,100254.25
2023-05-05T16:29:52.181Z,100255.94
2023-05-05T16:32:18.930Z,100257.53
2023-05-05T16:34:45.773Z,100257.53
2023-05-05T16:37:12.365Z,100252.13
2023-05-05T16:39:39.057Z,100253.59
2023-05-05T16:42:06.181Z,100264.53
2023-05-05T16:44:32.915Z,100258.34
2023-05-05T16:46:59.551Z,100259.59
2023-05-05T16:49:26.301Z,100256.53
2023-05-05T16:51:53.151Z,100260.09
2023-05-05T16:54:19.795Z,100254.50
2023-05-05T16:56:46.453Z,100256.97
2023-05-05T16:59:13.104Z,100249.09
2023-05-05T17:01:39.764Z,100260.91
2023-05-05T17:04:06.411Z,100252.19
2023-05-05T17:06:33.431Z,100260.81
2023-05-05T17:09:00.065Z,100254.03
2023-05-05T17:11:26.771Z,100252.41
2023-05-05T17:13:53.412Z,100260.84
2023-05-05T17:16:20.118Z,100248.81
2023-05-05T17:18:47.101Z,100255.00
2023-05-05T17:21:13.913Z,100251.41
2023-05-05T17:23:40.553Z,100250.97
2023-05-05T17:26:07.205Z,100251.03
2023-05-05T17:28:33.818Z,100253.72
2023-05-05T17:31:00.627Z,100250.88
2023-05-05T17:33:27.221Z,100249.31
2023-05-05T17:35:54.582Z,100251.19
2023-05-05T17:38:21.303Z,100253.13
2023-05-05T17:40:48.126Z,100254.97
2023-05-05T17:43:14.715Z,100253.13
2023-05-05T17:45:41.370Z,100262.19
2023-05-05T17:48:08.030Z,100260.69
2023-05-05T17:50:34.657Z,100260.69
2023-05-05T17:53:01.297Z,100256.13
2023-05-05T17:55:28.003Z,100261.78
2023-05-05T17:57:54.838Z,100254.84
2023-05-05T18:00:22.010Z,100260.91
2023-05-05T18:02:48.745Z,100265.50
2023-05-05T18:05:15.387Z,100267.25
2023-05-05T18:07:42.300Z,100263.34
2023-05-05T18:10:09.839Z,100264.00
2023-05-05T18:12:37.090Z,100262.69
2023-05-05T18:15:04.498Z,100263.94
2023-05-05T18:17:31.204Z,100264.59
2023-05-05T18:19:57.914Z,100266.03
2023-05-05T18:22:24.831Z,100260.22
2023-05-05T18:24:51.474Z,100267.13
2023-05-05T18:27:18.096Z,100266.25
2023-05-05T18:29:44.720Z,100268.50
2023-05-05T18:32:11.488Z,100268.72
2023-05-05T18:34:38.162Z,100269.97
2023-05-05T18:37:04.780Z,100275.91
2023-05-05T18:39:31.535Z,100274.13
2023-05-05T18:44:37.939Z,100273.63
2023-05-05T18:47:04.675Z,100276.56
2023-05-05T18:49:31.668Z,100271.75
2023-05-05T18:51:58.383Z,100275.38
2023-05-05T18:54:25.099Z,100281.31
2023-05-05T18:56:54.428Z,100279.50
2023-05-05T18:59:21.054Z,100286.38
2023-05-05T19:01:47.796Z,100286.34
2023-05-05T19:04:29.421Z,100286.44
2023-05-05T19:06:57.160Z,100291.75
2023-05-05T19:09:23.793Z,100292.16
2023-05-05T19:11:50.479Z,100288.81
2023-05-05T19:14:17.108Z,100297.41
2023-05-05T19:16:44.001Z,100294.41
2023-05-05T19:19:10.885Z,100296.28
2023-05-05T19:21:37.621Z,100302.28
2023-05-05T19:24:04.390Z,100299.69
2023-05-05T19:26:31.008Z,100290.22
2023-05-05T19:28:57.628Z,100288.66
2023-05-05T19:31:24.364Z,100282.56
2023-05-05T19:33:51.110Z,100286.16
2023-05-05T19:36:17.785Z,100289.03
2023-05-05T19:38:44.604Z,100289.81
2023-05-05T19:41:12.309Z,100288.25
2023-05-05T19:43:39.068Z,100290.41
2023-05-05T19:46:06.319Z,100292.16
2023-05-05T19:48:33.003Z,100292.63
2023-05-05T19:50:59.602Z,100282.38
2023-05-05T19:53:26.210Z,100287.88
2023-05-05T19:55:52.835Z,100289.44
2023-05-05T19:58:19.520Z,100292.94
2023-05-05T20:00:46.188Z,100283.34
2023-05-05T20:03:12.945Z,100286.09
2023-05-05T20:05:39.672Z,100286.31
2023-05-05T20:08:06.320Z,100280.91
2023-05-05T20:10:32.976Z,100280.34
2023-05-05T20:13:01.007Z,100284.81
2023-05-05T20:15:27.929Z,100287.69
2023-05-05T20:17:54.577Z,100285.22
2023-05-05T20:20:22.493Z,100284.03
2023-05-05T20:22:49.612Z,100282.72
2023-05-05T20:25:16.917Z,100282.78
2023-05-05T20:27:44.534Z,100283.56
2023-05-05T20:30:12.127Z,100289.00
2023-05-05T20:32:38.837Z,100285.41
2023-05-05T20:35:05.937Z,100286.53
2023-05-05T20:37:32.567Z,100290.59
2023-05-05T20:39:59.172Z,100279.75
2023-05-05T20:42:25.790Z,100281.50
2023-05-05T20:44:52.391Z,100283.56
2023-05-05T20:47:19.078Z,100275.38
2023-05-05T20:49:45.747Z,100284.03
2023-05-05T20:52:12.361Z,100278.97
2023-05-05T20:54:39.108Z,100282.53
2023-05-05T20:57:07.393Z,100282.22
2023-05-05T20:59:34.279Z,100288.53
2023-05-05T21:02:00.976Z,100285.72
2023-05-05T21:04:27.662Z,100282.78
2023-05-05T21:06:54.420Z,100283.31
2023-05-05T21:09:21.055Z,100276.34
2023-05-05T21:11:47.797Z,100278.34
2023-05-05T21:14:14.536Z,100273.09
2023-05-05T21:16:41.357Z,100273.69
2023-05-05T21:19:08.322Z,100266.78
2023-05-05T21:21:34.953Z,100269.34
2023-05-05T21:24:01.697Z,100267.44
2023-05-05T21:26:28.538Z,100262.03
2023-05-05T21:28:55.145Z,100264.59
2023-05-05T21:31:22.547Z,100260.97
2023-05-05T21:33:49.468Z,100259.66
2023-05-05T21:36:16.124Z,100258.41
2023-05-05T21:38:42.987Z,100259.28
2023-05-05T21:41:09.630Z,100261.16
2023-05-05T21:43:36.235Z,100254.50
2023-05-05T21:46:04.369Z,100258.41
2023-05-05T21:48:31.411Z,100253.16
2023-05-05T21:50:58.072Z,100246.00
2023-05-05T21:53:25.013Z,100245.88
2023-05-05T21:55:51.670Z,100246.41
2023-05-05T21:58:18.329Z,100240.44
2023-05-05T22:00:45.000Z,100235.75
2023-05-05T22:03:12.043Z,100235.00
2023-05-05T22:05:38.855Z,100239.25
2023-05-05T22:08:05.471Z,100233.13
2023-05-05T22:10:32.137Z,100237.13
2023-05-05T22:12:58.825Z,100235.94
2023-05-05T22:15:27.703Z,100238.53
2023-05-05T22:17:56.838Z,100238.78
2023-05-05T22:20:23.642Z,100240.75
2023-05-05T22:22:50.236Z,100241.69
2023-05-05T22:25:16.891Z,100239.66
2023-05-05T22:27:43.466Z,100237.56
2023-05-05T22:30:10.831Z,100239.53
2023-05-05T22:32:37.497Z,100230.28
2023-05-05T22:35:05.501Z,100232.31
2023-05-05T22:37:32.175Z,100228.59
2023-05-05T22:39:58.809Z,100239.53
2023-05-05T22:42:25.437Z,100250.72
2023-05-05T22:44:52.203Z,100251.41
2023-05-05T22:47:18.917Z,100247.81
2023-05-05T22:49:45.700Z,100247.13
2023-05-05T22:52:12.374Z,100245.59
2023-05-05T22:54:38.980Z,100254.03
2023-05-05T22:57:05.729Z,100258.75
2023-05-05T22:59:32.360Z,100256.66
2023-05-05T23:01:59.061Z,100251.56
2023-05-05T23:04:25.782Z,100256.75
2023-05-05T23:06:52.444Z,100260.81
2023-05-05T23:09:19.036Z,100255.16
2023-05-05T23:11:45.915Z,100261.13
2023-05-05T23:14:12.748Z,100253.63
2023-05-05T23:16:39.425Z,100254.50
2023-05-05T23:19:06.058Z,100252.75
2023-05-05T23:21:36.229Z,100249.28
2023-05-05T23:24:09.190Z,100248.06
2023-05-05T23:26:35.822Z,100245.00
2023-05-05T23:29:02.635Z,100247.63
2023-05-05T23:31:29.270Z,100242.25
2023-05-05T23:33:55.911Z,100244.69
2023-05-05T23:36:22.809Z,100240.84
2023-05-05T23:38:49.427Z,100232.31
2023-05-05T23:41:16.088Z,100232.00
2023-05-05T23:43:42.701Z,100234.03
2023-05-05T23:46:09.385Z,100236.13
2023-05-05T23:48:35.981Z,100238.28
2023-05-05T23:51:02.643Z,100238.31
2023-05-05T23:53:29.284Z,100232.44
2023-05-05T23:55:59.093Z,100228.69
2023-05-05T23:58:25.981Z,100235.56
